sensor_id;sensor_type;location;lat;lon;timestamp;P1;durP1;ratioP1;P2;durP2;ratioP2
57029;SDS011;42920;45.306;20.448;2022-12-31T00:01:28;64.35;;;39.63;;
57029;SDS011;42920;45.306;20.448;2022-12-31T00:03:54;63.92;;;36.88;;
57029;SDS011;42920;45.306;20.448;2022-12-31T00:06:31;66.53;;;40.08;;
57029;SDS011;42920;45.306;20.448;2022-12-31T00:08:59;62.72;;;37.70;;
57029;SDS011;42920;45.306;20.448;2022-12-31T00:11:26;64.00;;;37.95;;
57029;SDS011;42920;45.306;20.448;2022-12-31T00:13:53;66.20;;;38.78;;
57029;SDS011;42920;45.306;20.448;2022-12-31T00:16:24;70.28;;;41.60;;
57029;SDS011;42920;45.306;20.448;2022-12-31T00:18:53;65.20;;;37.95;;
57029;SDS011;42920;45.306;20.448;2022-12-31T00:21:20;69.43;;;38.88;;
57029;SDS011;42920;45.306;20.448;2022-12-31T00:23:46;63.42;;;38.38;;
57029;SDS011;42920;45.306;20.448;2022-12-31T00:26:20;66.93;;;37.78;;
57029;SDS011;42920;45.306;20.448;2022-12-31T00:28:49;49.10;;;29.52;;
57029;SDS011;42920;45.306;20.448;2022-12-31T00:31:17;62.47;;;37.65;;
57029;SDS011;42920;45.306;20.448;2022-12-31T00:33:54;66.70;;;37.50;;
57029;SDS011;42920;45.306;20.448;2022-12-31T00:36:22;68.05;;;38.45;;
57029;SDS011;42920;45.306;20.448;2022-12-31T00:38:50;67.97;;;38.10;;
57029;SDS011;42920;45.306;20.448;2022-12-31T00:41:17;69.93;;;40.60;;
57029;SDS011;42920;45.306;20.448;2022-12-31T00:43:44;72.05;;;39.25;;
57029;SDS011;42920;45.306;20.448;2022-12-31T00:46:10;72.20;;;36.78;;
57029;SDS011;42920;45.306;20.448;2022-12-31T00:48:37;67.78;;;39.30;;
57029;SDS011;42920;45.306;20.448;2022-12-31T00:51:04;72.65;;;39.47;;
57029;SDS011;42920;45.306;20.448;2022-12-31T00:53:32;75.53;;;39.78;;
57029;SDS011;42920;45.306;20.448;2022-12-31T00:56:05;65.75;;;37.67;;
57029;SDS011;42920;45.306;20.448;2022-12-31T00:58:35;73.55;;;39.10;;
57029;SDS011;42920;45.306;20.448;2022-12-31T01:01:11;59.45;;;36.97;;
57029;SDS011;42920;45.306;20.448;2022-12-31T01:03:40;73.10;;;39.97;;
57029;SDS011;42920;45.306;20.448;2022-12-31T01:06:06;65.88;;;38.83;;
57029;SDS011;42920;45.306;20.448;2022-12-31T01:08:32;72.22;;;40.53;;
57029;SDS011;42920;45.306;20.448;2022-12-31T01:10:59;72.65;;;38.90;;
57029;SDS011;42920;45.306;20.448;2022-12-31T01:13:47;67.10;;;39.58;;
57029;SDS011;42920;45.306;20.448;2022-12-31T01:16:18;65.70;;;40.50;;
57029;SDS011;42920;45.306;20.448;2022-12-31T01:18:46;67.25;;;38.28;;
57029;SDS011;42920;45.306;20.448;2022-12-31T01:21:12;73.38;;;37.60;;
57029;SDS011;42920;45.306;20.448;2022-12-31T01:23:39;69.82;;;39.85;;
57029;SDS011;42920;45.306;20.448;2022-12-31T01:26:06;67.63;;;39.90;;
57029;SDS011;42920;45.306;20.448;2022-12-31T01:28:32;66.95;;;38.28;;
57029;SDS011;42920;45.306;20.448;2022-12-31T01:31:02;70.57;;;40.90;;
57029;SDS011;42920;45.306;20.448;2022-12-31T01:33:32;69.15;;;38.78;;
57029;SDS011;42920;45.306;20.448;2022-12-31T01:36:02;67.05;;;38.00;;
57029;SDS011;42920;45.306;20.448;2022-12-31T01:38:32;64.88;;;39.45;;
57029;SDS011;42920;45.306;20.448;2022-12-31T01:40:59;66.88;;;39.40;;
57029;SDS011;42920;45.306;20.448;2022-12-31T01:43:42;70.97;;;39.85;;
57029;SDS011;42920;45.306;20.448;2022-12-31T01:46:08;72.00;;;39.17;;
57029;SDS011;42920;45.306;20.448;2022-12-31T01:48:35;66.50;;;38.85;;
57029;SDS011;42920;45.306;20.448;2022-12-31T01:51:01;74.68;;;40.50;;
57029;SDS011;42920;45.306;20.448;2022-12-31T01:53:28;69.07;;;39.63;;
57029;SDS011;42920;45.306;20.448;2022-12-31T01:55:57;65.88;;;38.00;;
57029;SDS011;42920;45.306;20.448;2022-12-31T01:58:32;63.95;;;38.35;;
57029;SDS011;42920;45.306;20.448;2022-12-31T02:01:01;66.20;;;39.33;;
57029;SDS011;42920;45.306;20.448;2022-12-31T02:03:27;68.68;;;39.80;;
57029;SDS011;42920;45.306;20.448;2022-12-31T02:06:06;69.93;;;41.72;;
57029;SDS011;42920;45.306;20.448;2022-12-31T02:08:38;69.10;;;40.55;;
57029;SDS011;42920;45.306;20.448;2022-12-31T02:11:20;64.47;;;39.55;;
57029;SDS011;42920;45.306;20.448;2022-12-31T02:13:49;71.93;;;39.30;;
57029;SDS011;42920;45.306;20.448;2022-12-31T02:16:25;66.93;;;39.33;;
57029;SDS011;42920;45.306;20.448;2022-12-31T02:27:27;70.00;;;38.40;;
57029;SDS011;42920;45.306;20.448;2022-12-31T02:30:22;71.88;;;41.17;;
57029;SDS011;42920;45.306;20.448;2022-12-31T02:38:25;71.88;;;41.53;;
57029;SDS011;42920;45.306;20.448;2022-12-31T02:40:55;65.57;;;38.17;;
57029;SDS011;42920;45.306;20.448;2022-12-31T02:43:21;67.68;;;39.60;;
57029;SDS011;42920;45.306;20.448;2022-12-31T02:51:28;61.80;;;36.90;;
57029;SDS011;42920;45.306;20.448;2022-12-31T03:02:34;66.78;;;37.53;;
57029;SDS011;42920;45.306;20.448;2022-12-31T03:05:04;63.03;;;36.05;;
57029;SDS011;42920;45.306;20.448;2022-12-31T03:07:32;59.67;;;35.35;;
57029;SDS011;42920;45.306;20.448;2022-12-31T03:09:58;61.30;;;35.15;;
57029;SDS011;42920;45.306;20.448;2022-12-31T03:12:29;62.20;;;36.00;;
57029;SDS011;42920;45.306;20.448;2022-12-31T03:15:16;66.70;;;34.80;;
57029;SDS011;42920;45.306;20.448;2022-12-31T03:17:56;60.50;;;35.22;;
57029;SDS011;42920;45.306;20.448;2022-12-31T03:21:20;62.15;;;32.80;;
57029;SDS011;42920;45.306;20.448;2022-12-31T03:24:04;63.08;;;36.03;;
57029;SDS011;42920;45.306;20.448;2022-12-31T03:26:49;65.45;;;36.15;;
57029;SDS011;42920;45.306;20.448;2022-12-31T03:29:14;62.50;;;35.13;;
57029;SDS011;42920;45.306;20.448;2022-12-31T03:34:05;64.82;;;34.38;;
57029;SDS011;42920;45.306;20.448;2022-12-31T03:38:57;64.05;;;35.25;;
57029;SDS011;42920;45.306;20.448;2022-12-31T03:43:48;62.72;;;34.22;;
57029;SDS011;42920;45.306;20.448;2022-12-31T03:48:39;61.88;;;33.53;;
57029;SDS011;42920;45.306;20.448;2022-12-31T03:53:30;65.15;;;35.60;;
57029;SDS011;42920;45.306;20.448;2022-12-31T03:58:21;61.08;;;34.10;;
57029;SDS011;42920;45.306;20.448;2022-12-31T04:03:13;56.30;;;33.55;;
57029;SDS011;42920;45.306;20.448;2022-12-31T04:08:05;58.08;;;33.60;;
57029;SDS011;42920;45.306;20.448;2022-12-31T04:10:30;55.65;;;32.80;;
57029;SDS011;42920;45.306;20.448;2022-12-31T04:15:24;61.85;;;36.08;;
57029;SDS011;42920;45.306;20.448;2022-12-31T04:17:49;62.75;;;36.40;;
57029;SDS011;42920;45.306;20.448;2022-12-31T04:22:41;57.60;;;33.28;;
57029;SDS011;42920;45.306;20.448;2022-12-31T04:25:07;61.58;;;34.80;;
57029;SDS011;42920;45.306;20.448;2022-12-31T04:27:39;61.85;;;35.15;;
57029;SDS011;42920;45.306;20.448;2022-12-31T04:30:07;55.03;;;34.03;;
57029;SDS011;42920;45.306;20.448;2022-12-31T04:32:34;60.08;;;32.92;;
57029;SDS011;42920;45.306;20.448;2022-12-31T04:35:00;63.53;;;33.45;;
57029;SDS011;42920;45.306;20.448;2022-12-31T04:39:51;56.53;;;33.05;;
57029;SDS011;42920;45.306;20.448;2022-12-31T04:44:42;55.65;;;31.85;;
57029;SDS011;42920;45.306;20.448;2022-12-31T04:49:34;52.58;;;31.00;;
57029;SDS011;42920;45.306;20.448;2022-12-31T04:54:25;54.35;;;31.48;;
57029;SDS011;42920;45.306;20.448;2022-12-31T04:59:16;51.60;;;30.10;;
57029;SDS011;42920;45.306;20.448;2022-12-31T05:04:07;53.40;;;31.75;;
57029;SDS011;42920;45.306;20.448;2022-12-31T05:08:59;57.33;;;30.20;;
57029;SDS011;42920;45.306;20.448;2022-12-31T05:11:25;56.50;;;32.17;;
57029;SDS011;42920;45.306;20.448;2022-12-31T05:16:16;50.05;;;29.75;;
57029;SDS011;42920;45.306;20.448;2022-12-31T05:21:08;64.03;;;33.08;;
57029;SDS011;42920;45.306;20.448;2022-12-31T05:23:39;52.53;;;31.42;;
57029;SDS011;42920;45.306;20.448;2022-12-31T05:26:05;55.67;;;30.80;;
57029;SDS011;42920;45.306;20.448;2022-12-31T05:30:56;60.08;;;33.10;;
57029;SDS011;42920;45.306;20.448;2022-12-31T05:35:48;58.50;;;32.03;;
57029;SDS011;42920;45.306;20.448;2022-12-31T05:38:14;56.83;;;33.70;;
57029;SDS011;42920;45.306;20.448;2022-12-31T05:40:40;56.60;;;31.55;;
57029;SDS011;42920;45.306;20.448;2022-12-31T05:43:05;51.45;;;30.58;;
57029;SDS011;42920;45.306;20.448;2022-12-31T05:47:57;58.10;;;30.63;;
57029;SDS011;42920;45.306;20.448;2022-12-31T05:52:48;54.60;;;30.25;;
57029;SDS011;42920;45.306;20.448;2022-12-31T05:57:40;57.72;;;31.10;;
57029;SDS011;42920;45.306;20.448;2022-12-31T06:00:07;61.22;;;34.53;;
57029;SDS011;42920;45.306;20.448;2022-12-31T06:02:34;67.35;;;33.90;;
57029;SDS011;42920;45.306;20.448;2022-12-31T06:05:00;59.03;;;34.17;;
57029;SDS011;42920;45.306;20.448;2022-12-31T06:07:26;54.28;;;33.28;;
57029;SDS011;42920;45.306;20.448;2022-12-31T06:12:17;60.95;;;32.90;;
57029;SDS011;42920;45.306;20.448;2022-12-31T06:17:08;53.80;;;30.92;;
57029;SDS011;42920;45.306;20.448;2022-12-31T06:19:34;53.03;;;31.52;;
57029;SDS011;42920;45.306;20.448;2022-12-31T06:22:00;60.13;;;32.92;;
57029;SDS011;42920;45.306;20.448;2022-12-31T06:26:51;51.35;;;29.23;;
57029;SDS011;42920;45.306;20.448;2022-12-31T06:31:42;54.60;;;30.67;;
57029;SDS011;42920;45.306;20.448;2022-12-31T06:34:08;52.50;;;30.65;;
57029;SDS011;42920;45.306;20.448;2022-12-31T06:39:00;52.95;;;29.65;;
57029;SDS011;42920;45.306;20.448;2022-12-31T06:41:26;56.20;;;31.77;;
57029;SDS011;42920;45.306;20.448;2022-12-31T06:43:51;53.38;;;30.52;;
57029;SDS011;42920;45.306;20.448;2022-12-31T06:46:17;55.15;;;32.30;;
57029;SDS011;42920;45.306;20.448;2022-12-31T06:48:43;56.05;;;32.67;;
57029;SDS011;42920;45.306;20.448;2022-12-31T06:51:10;51.67;;;31.02;;
57029;SDS011;42920;45.306;20.448;2022-12-31T06:53:38;64.95;;;37.05;;
57029;SDS011;42920;45.306;20.448;2022-12-31T06:56:05;64.28;;;38.30;;
57029;SDS011;42920;45.306;20.448;2022-12-31T06:58:37;57.67;;;34.60;;
57029;SDS011;42920;45.306;20.448;2022-12-31T07:03:38;63.22;;;37.72;;
57029;SDS011;42920;45.306;20.448;2022-12-31T07:06:15;48.95;;;30.23;;
57029;SDS011;42920;45.306;20.448;2022-12-31T07:11:55;59.97;;;33.60;;
57029;SDS011;42920;45.306;20.448;2022-12-31T07:19:50;47.67;;;27.73;;
57029;SDS011;42920;45.306;20.448;2022-12-31T07:22:22;54.13;;;32.42;;
57029;SDS011;42920;45.306;20.448;2022-12-31T07:24:48;55.95;;;29.95;;
57029;SDS011;42920;45.306;20.448;2022-12-31T07:29:50;54.08;;;30.92;;
57029;SDS011;42920;45.306;20.448;2022-12-31T07:32:30;50.20;;;28.52;;
57029;SDS011;42920;45.306;20.448;2022-12-31T07:49:14;60.30;;;34.85;;
57029;SDS011;42920;45.306;20.448;2022-12-31T07:51:40;48.47;;;31.75;;
57029;SDS011;42920;45.306;20.448;2022-12-31T07:54:06;60.58;;;34.58;;
57029;SDS011;42920;45.306;20.448;2022-12-31T07:56:32;60.78;;;33.15;;
57029;SDS011;42920;45.306;20.448;2022-12-31T08:01:38;50.15;;;30.08;;
57029;SDS011;42920;45.306;20.448;2022-12-31T08:04:14;38.75;;;24.13;;
57029;SDS011;42920;45.306;20.448;2022-12-31T08:12:32;50.63;;;29.83;;
57029;SDS011;42920;45.306;20.448;2022-12-31T08:14:59;57.13;;;32.28;;
57029;SDS011;42920;45.306;20.448;2022-12-31T08:17:25;53.88;;;31.20;;
57029;SDS011;42920;45.306;20.448;2022-12-31T08:19:51;49.97;;;29.10;;
57029;SDS011;42920;45.306;20.448;2022-12-31T08:25:01;53.75;;;28.48;;
57029;SDS011;42920;45.306;20.448;2022-12-31T08:39:00;49.17;;;30.27;;
57029;SDS011;42920;45.306;20.448;2022-12-31T08:41:32;61.78;;;33.15;;
57029;SDS011;42920;45.306;20.448;2022-12-31T08:49:25;58.30;;;34.13;;
57029;SDS011;42920;45.306;20.448;2022-12-31T08:51:53;61.95;;;33.53;;
57029;SDS011;42920;45.306;20.448;2022-12-31T08:54:19;56.17;;;33.15;;
57029;SDS011;42920;45.306;20.448;2022-12-31T09:05:08;47.17;;;29.60;;
57029;SDS011;42920;45.306;20.448;2022-12-31T09:18:43;52.00;;;32.42;;
57029;SDS011;42920;45.306;20.448;2022-12-31T09:21:09;62.05;;;37.28;;
57029;SDS011;42920;45.306;20.448;2022-12-31T09:23:37;49.90;;;30.90;;
57029;SDS011;42920;45.306;20.448;2022-12-31T09:31:39;43.13;;;26.95;;
57029;SDS011;42920;45.306;20.448;2022-12-31T09:36:58;39.83;;;24.63;;
57029;SDS011;42920;45.306;20.448;2022-12-31T09:49:55;39.60;;;24.27;;
57029;SDS011;42920;45.306;20.448;2022-12-31T09:52:57;40.80;;;26.35;;
57029;SDS011;42920;45.306;20.448;2022-12-31T10:01:05;45.88;;;25.35;;
57029;SDS011;42920;45.306;20.448;2022-12-31T10:03:55;50.65;;;29.20;;
57029;SDS011;42920;45.306;20.448;2022-12-31T10:09:25;46.20;;;29.13;;
57029;SDS011;42920;45.306;20.448;2022-12-31T10:42:11;44.40;;;27.50;;
57029;SDS011;42920;45.306;20.448;2022-12-31T10:48:42;50.00;;;29.38;;
57029;SDS011;42920;45.306;20.448;2022-12-31T11:01:59;47.33;;;28.45;;
57029;SDS011;42920;45.306;20.448;2022-12-31T11:13:21;40.70;;;25.92;;
57029;SDS011;42920;45.306;20.448;2022-12-31T11:16:20;47.15;;;28.05;;
57029;SDS011;42920;45.306;20.448;2022-12-31T11:21:44;37.30;;;25.38;;
57029;SDS011;42920;45.306;20.448;2022-12-31T11:35:36;42.00;;;24.10;;
57029;SDS011;42920;45.306;20.448;2022-12-31T11:38:36;48.80;;;28.00;;
57029;SDS011;42920;45.306;20.448;2022-12-31T11:41:15;42.20;;;26.35;;
57029;SDS011;42920;45.306;20.448;2022-12-31T11:47:02;35.05;;;22.17;;
57029;SDS011;42920;45.306;20.448;2022-12-31T11:49:52;32.80;;;22.08;;
57029;SDS011;42920;45.306;20.448;2022-12-31T11:57:58;32.67;;;17.23;;
57029;SDS011;42920;45.306;20.448;2022-12-31T12:00:35;32.97;;;20.50;;
57029;SDS011;42920;45.306;20.448;2022-12-31T12:03:02;28.33;;;16.30;;
57029;SDS011;42920;45.306;20.448;2022-12-31T12:05:30;23.70;;;14.00;;
57029;SDS011;42920;45.306;20.448;2022-12-31T12:07:56;24.25;;;13.90;;
57029;SDS011;42920;45.306;20.448;2022-12-31T12:10:23;25.83;;;15.02;;
57029;SDS011;42920;45.306;20.448;2022-12-31T12:12:52;50.38;;;26.73;;
57029;SDS011;42920;45.306;20.448;2022-12-31T12:15:36;30.38;;;19.05;;
57029;SDS011;42920;45.306;20.448;2022-12-31T12:18:07;37.38;;;19.65;;
57029;SDS011;42920;45.306;20.448;2022-12-31T12:20:37;30.80;;;18.85;;
57029;SDS011;42920;45.306;20.448;2022-12-31T12:23:12;39.88;;;20.27;;
57029;SDS011;42920;45.306;20.448;2022-12-31T12:25:41;45.95;;;23.35;;
57029;SDS011;42920;45.306;20.448;2022-12-31T12:30:43;39.67;;;22.92;;
57029;SDS011;42920;45.306;20.448;2022-12-31T12:33:13;44.97;;;26.00;;
57029;SDS011;42920;45.306;20.448;2022-12-31T12:35:41;33.83;;;20.70;;
57029;SDS011;42920;45.306;20.448;2022-12-31T12:38:20;36.97;;;21.45;;
57029;SDS011;42920;45.306;20.448;2022-12-31T12:43:33;36.42;;;21.08;;
57029;SDS011;42920;45.306;20.448;2022-12-31T12:46:02;39.38;;;23.27;;
57029;SDS011;42920;45.306;20.448;2022-12-31T12:48:40;40.67;;;23.98;;
57029;SDS011;42920;45.306;20.448;2022-12-31T12:51:12;50.70;;;25.77;;
57029;SDS011;42920;45.306;20.448;2022-12-31T12:57:11;30.70;;;19.13;;
57029;SDS011;42920;45.306;20.448;2022-12-31T13:02:34;29.63;;;18.40;;
57029;SDS011;42920;45.306;20.448;2022-12-31T13:07:50;25.58;;;16.15;;
57029;SDS011;42920;45.306;20.448;2022-12-31T13:10:48;26.45;;;16.48;;
57029;SDS011;42920;45.306;20.448;2022-12-31T13:27:33;37.50;;;20.27;;
57029;SDS011;42920;45.306;20.448;2022-12-31T13:30:12;33.15;;;20.25;;
57029;SDS011;42920;45.306;20.448;2022-12-31T13:32:49;37.78;;;20.33;;
57029;SDS011;42920;45.306;20.448;2022-12-31T13:35:23;39.55;;;21.02;;
57029;SDS011;42920;45.306;20.448;2022-12-31T13:37:55;40.15;;;22.13;;
57029;SDS011;42920;45.306;20.448;2022-12-31T13:43:18;44.58;;;23.70;;
57029;SDS011;42920;45.306;20.448;2022-12-31T13:46:15;46.50;;;27.27;;
57029;SDS011;42920;45.306;20.448;2022-12-31T13:49:03;56.35;;;34.08;;
57029;SDS011;42920;45.306;20.448;2022-12-31T13:54:41;67.10;;;34.88;;
57029;SDS011;42920;45.306;20.448;2022-12-31T14:00:14;59.58;;;34.60;;
57029;SDS011;42920;45.306;20.448;2022-12-31T14:02:46;61.28;;;31.98;;
57029;SDS011;42920;45.306;20.448;2022-12-31T14:08:18;36.33;;;22.08;;
57029;SDS011;42920;45.306;20.448;2022-12-31T14:10:47;39.00;;;21.27;;
57029;SDS011;42920;45.306;20.448;2022-12-31T14:16:00;39.30;;;24.13;;
57029;SDS011;42920;45.306;20.448;2022-12-31T14:18:35;40.53;;;25.15;;
57029;SDS011;42920;45.306;20.448;2022-12-31T14:21:23;47.13;;;26.35;;
57029;SDS011;42920;45.306;20.448;2022-12-31T14:26:30;41.33;;;25.17;;
57029;SDS011;42920;45.306;20.448;2022-12-31T14:31:45;37.42;;;23.40;;
57029;SDS011;42920;45.306;20.448;2022-12-31T14:36:52;38.60;;;23.75;;
57029;SDS011;42920;45.306;20.448;2022-12-31T14:45:12;36.63;;;22.98;;
57029;SDS011;42920;45.306;20.448;2022-12-31T14:51:12;42.83;;;25.52;;
57029;SDS011;42920;45.306;20.448;2022-12-31T14:53:38;40.55;;;22.58;;
57029;SDS011;42920;45.306;20.448;2022-12-31T14:59:20;41.95;;;24.25;;
57029;SDS011;42920;45.306;20.448;2022-12-31T15:01:50;37.20;;;21.83;;
57029;SDS011;42920;45.306;20.448;2022-12-31T15:04:16;39.05;;;21.55;;
57029;SDS011;42920;45.306;20.448;2022-12-31T15:06:56;34.47;;;22.75;;
57029;SDS011;42920;45.306;20.448;2022-12-31T15:09:53;35.40;;;22.02;;
57029;SDS011;42920;45.306;20.448;2022-12-31T15:12:46;32.80;;;20.88;;
57029;SDS011;42920;45.306;20.448;2022-12-31T15:15:18;44.50;;;24.83;;
57029;SDS011;42920;45.306;20.448;2022-12-31T15:24:11;63.25;;;34.55;;
57029;SDS011;42920;45.306;20.448;2022-12-31T15:26:45;66.32;;;37.67;;
57029;SDS011;42920;45.306;20.448;2022-12-31T15:29:35;69.85;;;37.33;;
57029;SDS011;42920;45.306;20.448;2022-12-31T15:32:14;56.42;;;34.65;;
57029;SDS011;42920;45.306;20.448;2022-12-31T15:34:43;63.10;;;35.85;;
57029;SDS011;42920;45.306;20.448;2022-12-31T15:42:40;91.45;;;51.33;;
57029;SDS011;42920;45.306;20.448;2022-12-31T15:45:15;90.00;;;50.33;;
57029;SDS011;42920;45.306;20.448;2022-12-31T15:47:50;92.43;;;51.85;;
57029;SDS011;42920;45.306;20.448;2022-12-31T15:50:22;87.03;;;50.90;;
57029;SDS011;42920;45.306;20.448;2022-12-31T15:52:51;75.35;;;46.72;;
57029;SDS011;42920;45.306;20.448;2022-12-31T15:58:08;70.85;;;41.83;;
57029;SDS011;42920;45.306;20.448;2022-12-31T16:01:11;65.53;;;41.92;;
57029;SDS011;42920;45.306;20.448;2022-12-31T16:03:42;64.50;;;40.97;;
57029;SDS011;42920;45.306;20.448;2022-12-31T16:06:11;68.65;;;44.65;;
57029;SDS011;42920;45.306;20.448;2022-12-31T16:08:39;69.55;;;43.33;;
57029;SDS011;42920;45.306;20.448;2022-12-31T16:11:09;70.45;;;44.35;;
57029;SDS011;42920;45.306;20.448;2022-12-31T16:13:38;71.40;;;44.97;;
57029;SDS011;42920;45.306;20.448;2022-12-31T16:16:20;70.53;;;42.25;;
57029;SDS011;42920;45.306;20.448;2022-12-31T16:18:51;66.43;;;43.47;;
57029;SDS011;42920;45.306;20.448;2022-12-31T16:23:57;73.57;;;43.28;;
57029;SDS011;42920;45.306;20.448;2022-12-31T16:27:04;64.38;;;42.38;;
57029;SDS011;42920;45.306;20.448;2022-12-31T16:29:24;62.30;;;37.45;;
57029;SDS011;42920;45.306;20.448;2022-12-31T16:31:51;66.70;;;41.30;;
57029;SDS011;42920;45.306;20.448;2022-12-31T16:34:19;83.95;;;48.65;;
57029;SDS011;42920;45.306;20.448;2022-12-31T16:37:02;81.30;;;48.90;;
57029;SDS011;42920;45.306;20.448;2022-12-31T16:39:30;73.65;;;47.08;;
57029;SDS011;42920;45.306;20.448;2022-12-31T16:44:38;73.28;;;44.42;;
57029;SDS011;42920;45.306;20.448;2022-12-31T16:47:05;69.18;;;43.35;;
57029;SDS011;42920;45.306;20.448;2022-12-31T16:49:34;79.47;;;46.40;;
57029;SDS011;42920;45.306;20.448;2022-12-31T16:52:03;71.57;;;45.03;;
57029;SDS011;42920;45.306;20.448;2022-12-31T16:54:36;66.90;;;42.78;;
57029;SDS011;42920;45.306;20.448;2022-12-31T16:57:03;72.53;;;45.65;;
57029;SDS011;42920;45.306;20.448;2022-12-31T16:59:40;69.45;;;44.13;;
57029;SDS011;42920;45.306;20.448;2022-12-31T17:02:29;68.10;;;41.92;;
57029;SDS011;42920;45.306;20.448;2022-12-31T17:05:00;63.08;;;41.88;;
57029;SDS011;42920;45.306;20.448;2022-12-31T17:12:39;66.40;;;45.20;;
57029;SDS011;42920;45.306;20.448;2022-12-31T17:15:15;77.05;;;50.63;;
57029;SDS011;42920;45.306;20.448;2022-12-31T17:17:48;72.18;;;44.72;;
57029;SDS011;42920;45.306;20.448;2022-12-31T17:20:21;64.38;;;41.45;;
57029;SDS011;42920;45.306;20.448;2022-12-31T17:22:53;67.60;;;43.38;;
57029;SDS011;42920;45.306;20.448;2022-12-31T17:25:31;79.13;;;49.20;;
57029;SDS011;42920;45.306;20.448;2022-12-31T17:28:01;80.75;;;50.80;;
57029;SDS011;42920;45.306;20.448;2022-12-31T17:35:40;83.78;;;52.85;;
57029;SDS011;42920;45.306;20.448;2022-12-31T17:40:50;83.05;;;50.13;;
57029;SDS011;42920;45.306;20.448;2022-12-31T17:43:30;72.72;;;46.53;;
57029;SDS011;42920;45.306;20.448;2022-12-31T17:46:00;72.22;;;47.72;;
57029;SDS011;42920;45.306;20.448;2022-12-31T17:48:27;81.80;;;50.35;;
57029;SDS011;42920;45.306;20.448;2022-12-31T17:50:57;82.35;;;51.58;;
57029;SDS011;42920;45.306;20.448;2022-12-31T17:53:24;81.95;;;52.13;;
57029;SDS011;42920;45.306;20.448;2022-12-31T17:55:51;89.53;;;54.50;;
57029;SDS011;42920;45.306;20.448;2022-12-31T17:58:26;90.07;;;54.85;;
57029;SDS011;42920;45.306;20.448;2022-12-31T18:00:52;85.50;;;54.03;;
57029;SDS011;42920;45.306;20.448;2022-12-31T18:03:18;92.53;;;57.33;;
57029;SDS011;42920;45.306;20.448;2022-12-31T18:05:44;87.38;;;54.30;;
57029;SDS011;42920;45.306;20.448;2022-12-31T18:08:10;92.72;;;56.92;;
57029;SDS011;42920;45.306;20.448;2022-12-31T18:10:36;101.25;;;62.22;;
57029;SDS011;42920;45.306;20.448;2022-12-31T18:13:05;99.63;;;58.47;;
57029;SDS011;42920;45.306;20.448;2022-12-31T18:15:38;103.90;;;64.13;;
57029;SDS011;42920;45.306;20.448;2022-12-31T18:18:17;115.53;;;69.88;;
57029;SDS011;42920;45.306;20.448;2022-12-31T18:20:45;156.68;;;84.97;;
57029;SDS011;42920;45.306;20.448;2022-12-31T18:23:22;137.90;;;79.38;;
57029;SDS011;42920;45.306;20.448;2022-12-31T18:26:02;95.07;;;61.33;;
57029;SDS011;42920;45.306;20.448;2022-12-31T18:28:28;95.57;;;59.90;;
57029;SDS011;42920;45.306;20.448;2022-12-31T18:30:54;87.95;;;54.95;;
57029;SDS011;42920;45.306;20.448;2022-12-31T18:33:20;86.60;;;55.42;;
57029;SDS011;42920;45.306;20.448;2022-12-31T18:35:49;83.68;;;53.28;;
57029;SDS011;42920;45.306;20.448;2022-12-31T18:38:16;82.05;;;50.58;;
57029;SDS011;42920;45.306;20.448;2022-12-31T18:40:47;71.53;;;46.60;;
57029;SDS011;42920;45.306;20.448;2022-12-31T18:43:22;81.47;;;50.30;;
57029;SDS011;42920;45.306;20.448;2022-12-31T18:45:48;87.07;;;56.58;;
57029;SDS011;42920;45.306;20.448;2022-12-31T18:48:15;113.57;;;63.08;;
57029;SDS011;42920;45.306;20.448;2022-12-31T18:50:42;106.85;;;66.65;;
57029;SDS011;42920;45.306;20.448;2022-12-31T18:53:15;107.22;;;67.10;;
57029;SDS011;42920;45.306;20.448;2022-12-31T18:55:47;114.18;;;70.25;;
57029;SDS011;42920;45.306;20.448;2022-12-31T18:58:18;117.75;;;71.60;;
57029;SDS011;42920;45.306;20.448;2022-12-31T19:00:44;103.70;;;62.45;;
57029;SDS011;42920;45.306;20.448;2022-12-31T19:03:15;91.55;;;57.17;;
57029;SDS011;42920;45.306;20.448;2022-12-31T19:05:43;92.13;;;54.15;;
57029;SDS011;42920;45.306;20.448;2022-12-31T19:08:09;79.80;;;49.50;;
57029;SDS011;42920;45.306;20.448;2022-12-31T19:10:35;80.78;;;50.80;;
57029;SDS011;42920;45.306;20.448;2022-12-31T19:13:01;78.63;;;48.10;;
57029;SDS011;42920;45.306;20.448;2022-12-31T19:17:56;74.82;;;44.92;;
57029;SDS011;42920;45.306;20.448;2022-12-31T19:20:24;76.13;;;46.45;;
57029;SDS011;42920;45.306;20.448;2022-12-31T19:22:50;84.30;;;47.22;;
57029;SDS011;42920;45.306;20.448;2022-12-31T19:25:20;79.32;;;48.88;;
57029;SDS011;42920;45.306;20.448;2022-12-31T19:27:47;72.82;;;45.47;;
57029;SDS011;42920;45.306;20.448;2022-12-31T19:30:19;77.22;;;47.80;;
57029;SDS011;42920;45.306;20.448;2022-12-31T19:32:49;69.88;;;44.33;;
57029;SDS011;42920;45.306;20.448;2022-12-31T19:35:16;75.45;;;45.97;;
57029;SDS011;42920;45.306;20.448;2022-12-31T19:37:43;75.32;;;47.22;;
57029;SDS011;42920;45.306;20.448;2022-12-31T19:40:14;77.20;;;47.85;;
57029;SDS011;42920;45.306;20.448;2022-12-31T19:42:42;74.85;;;47.45;;
57029;SDS011;42920;45.306;20.448;2022-12-31T19:45:12;76.00;;;47.55;;
57029;SDS011;42920;45.306;20.448;2022-12-31T19:47:43;87.75;;;49.65;;
57029;SDS011;42920;45.306;20.448;2022-12-31T19:50:31;75.63;;;48.10;;
57029;SDS011;42920;45.306;20.448;2022-12-31T19:52:57;79.82;;;50.78;;
57029;SDS011;42920;45.306;20.448;2022-12-31T19:55:23;81.90;;;48.42;;
57029;SDS011;42920;45.306;20.448;2022-12-31T19:57:50;73.85;;;47.90;;
57029;SDS011;42920;45.306;20.448;2022-12-31T20:00:16;77.10;;;50.30;;
57029;SDS011;42920;45.306;20.448;2022-12-31T20:02:43;78.45;;;49.05;;
57029;SDS011;42920;45.306;20.448;2022-12-31T20:05:11;76.40;;;47.33;;
57029;SDS011;42920;45.306;20.448;2022-12-31T20:07:38;79.93;;;48.33;;
57029;SDS011;42920;45.306;20.448;2022-12-31T20:10:04;76.90;;;47.60;;
57029;SDS011;42920;45.306;20.448;2022-12-31T20:12:30;81.63;;;51.50;;
57029;SDS011;42920;45.306;20.448;2022-12-31T20:14:56;74.70;;;47.55;;
57029;SDS011;42920;45.306;20.448;2022-12-31T20:17:22;82.63;;;50.30;;
57029;SDS011;42920;45.306;20.448;2022-12-31T20:19:48;77.38;;;48.28;;
57029;SDS011;42920;45.306;20.448;2022-12-31T20:22:14;87.15;;;50.63;;
57029;SDS011;42920;45.306;20.448;2022-12-31T20:24:40;84.55;;;51.13;;
57029;SDS011;42920;45.306;20.448;2022-12-31T20:27:06;87.93;;;55.15;;
57029;SDS011;42920;45.306;20.448;2022-12-31T20:29:32;83.72;;;54.65;;
57029;SDS011;42920;45.306;20.448;2022-12-31T20:31:58;80.85;;;51.85;;
57029;SDS011;42920;45.306;20.448;2022-12-31T20:34:24;84.38;;;53.38;;
57029;SDS011;42920;45.306;20.448;2022-12-31T20:36:50;83.18;;;51.63;;
57029;SDS011;42920;45.306;20.448;2022-12-31T20:39:16;93.65;;;56.90;;
57029;SDS011;42920;45.306;20.448;2022-12-31T20:41:41;87.03;;;55.08;;
57029;SDS011;42920;45.306;20.448;2022-12-31T20:44:07;87.28;;;54.38;;
57029;SDS011;42920;45.306;20.448;2022-12-31T20:46:33;95.63;;;58.60;;